sensor_id;sensor_type;location;lat;lon;timestamp;temperature;humidity
24800;DHT22;12897;50.812;4.430;2023-09-18T00:01:47;21.50;99.90
24800;DHT22;12897;50.812;4.430;2023-09-18T00:04:15;21.60;99.90
24800;DHT22;12897;50.812;4.430;2023-09-18T00:06:43;21.70;99.90
24800;DHT22;12897;50.812;4.430;2023-09-18T00:09:11;21.60;99.90
24800;DHT22;12897;50.812;4.430;2023-09-18T00:11:40;21.60;99.90
24800;DHT22;12897;50.812;4.430;2023-09-18T00:14:09;21.70;99.90
24800;DHT22;12897;50.812;4.430;2023-09-18T00:16:36;21.80;99.90
24800;DHT22;12897;50.812;4.430;2023-09-18T00:19:04;21.80;99.90
24800;DHT22;12897;50.812;4.430;2023-09-18T00:21:34;21.80;99.90
24800;DHT22;12897;50.812;4.430;2023-09-18T00:24:02;21.70;99.90
24800;DHT22;12897;50.812;4.430;2023-09-18T00:26:31;21.60;99.90
24800;DHT22;12897;50.812;4.430;2023-09-18T00:28:58;21.60;99.90
24800;DHT22;12897;50.812;4.430;2023-09-18T00:31:26;21.70;99.90
24800;DHT22;12897;50.812;4.430;2023-09-18T00:33:53;21.90;99.90
24800;DHT22;12897;50.812;4.430;2023-09-18T00:36:21;22.10;99.90
24800;DHT22;12897;50.812;4.430;2023-09-18T00:38:48;22.10;99.90
24800;DHT22;12897;50.812;4.430;2023-09-18T00:41:17;21.90;99.90
24800;DHT22;12897;50.812;4.430;2023-09-18T00:43:45;21.90;99.90
24800;DHT22;12897;50.812;4.430;2023-09-18T00:46:13;21.60;99.90
24800;DHT22;12897;50.812;4.430;2023-09-18T00:48:41;21.60;99.90
24800;DHT22;12897;50.812;4.430;2023-09-18T00:51:13;21.60;99.90
24800;DHT22;12897;50.812;4.430;2023-09-18T00:53:44;21.60;99.90
24800;DHT22;12897;50.812;4.430;2023-09-18T00:56:12;21.70;99.90
24800;DHT22;12897;50.812;4.430;2023-09-18T00:58:40;21.70;99.90
24800;DHT22;12897;50.812;4.430;2023-09-18T01:01:09;21.60;99.90
24800;DHT22;12897;50.812;4.430;2023-09-18T01:03:37;21.50;99.90
24800;DHT22;12897;50.812;4.430;2023-09-18T01:06:05;21.50;99.90
24800;DHT22;12897;50.812;4.430;2023-09-18T01:08:32;21.60;99.90
24800;DHT22;12897;50.812;4.430;2023-09-18T01:11:14;21.70;99.90
24800;DHT22;12897;50.812;4.430;2023-09-18T01:13:50;21.70;99.90
24800;DHT22;12897;50.812;4.430;2023-09-18T01:16:20;21.70;99.90
24800;DHT22;12897;50.812;4.430;2023-09-18T01:18:50;21.70;99.90
24800;DHT22;12897;50.812;4.430;2023-09-18T01:21:20;21.90;99.90
24800;DHT22;12897;50.812;4.430;2023-09-18T01:23:50;21.80;99.90
24800;DHT22;12897;50.812;4.430;2023-09-18T01:26:18;21.90;99.90
24800;DHT22;12897;50.812;4.430;2023-09-18T01:28:45;22.00;99.90
24800;DHT22;12897;50.812;4.430;2023-09-18T01:31:13;22.00;99.90
24800;DHT22;12897;50.812;4.430;2023-09-18T01:33:41;21.90;99.90
24800;DHT22;12897;50.812;4.430;2023-09-18T01:36:12;22.00;99.90
24800;DHT22;12897;50.812;4.430;2023-09-18T01:38:41;22.10;99.90
24800;DHT22;12897;50.812;4.430;2023-09-18T01:41:09;22.00;99.90
24800;DHT22;12897;50.812;4.430;2023-09-18T01:43:36;21.80;99.90
24800;DHT22;12897;50.812;4.430;2023-09-18T01:46:06;21.70;99.90
24800;DHT22;12897;50.812;4.430;2023-09-18T01:48:33;21.70;99.90
24800;DHT22;12897;50.812;4.430;2023-09-18T01:51:01;21.80;99.90
24800;DHT22;12897;50.812;4.430;2023-09-18T01:53:29;21.70;99.90
24800;DHT22;12897;50.812;4.430;2023-09-18T01:55:57;21.60;99.90
24800;DHT22;12897;50.812;4.430;2023-09-18T01:58:25;21.60;99.90
24800;DHT22;12897;50.812;4.430;2023-09-18T02:00:52;21.60;99.90
24800;DHT22;12897;50.812;4.430;2023-09-18T02:03:20;21.70;99.90
24800;DHT22;12897;50.812;4.430;2023-09-18T02:05:48;21.60;99.90
24800;DHT22;12897;50.812;4.430;2023-09-18T02:08:16;21.60;99.90
24800;DHT22;12897;50.812;4.430;2023-09-18T02:10:43;21.50;99.90
24800;DHT22;12897;50.812;4.430;2023-09-18T02:13:13;21.40;99.90
24800;DHT22;12897;50.812;4.430;2023-09-18T02:15:40;21.40;99.90
24800;DHT22;12897;50.812;4.430;2023-09-18T02:18:10;21.40;99.90
24800;DHT22;12897;50.812;4.430;2023-09-18T02:20:41;21.30;99.90
24800;DHT22;12897;50.812;4.430;2023-09-18T02:23:12;21.20;99.90
24800;DHT22;12897;50.812;4.430;2023-09-18T02:25:39;21.10;99.90
24800;DHT22;12897;50.812;4.430;2023-09-18T02:28:07;21.20;99.90
24800;DHT22;12897;50.812;4.430;2023-09-18T02:30:35;21.60;99.90
24800;DHT22;12897;50.812;4.430;2023-09-18T02:33:03;21.60;99.90
24800;DHT22;12897;50.812;4.430;2023-09-18T02:35:35;21.50;99.90
24800;DHT22;12897;50.812;4.430;2023-09-18T02:38:07;21.40;99.90
24800;DHT22;12897;50.812;4.430;2023-09-18T02:40:34;21.30;99.90
24800;DHT22;12897;50.812;4.430;2023-09-18T02:43:04;21.20;99.90
24800;DHT22;12897;50.812;4.430;2023-09-18T02:45:31;21.40;99.90
24800;DHT22;12897;50.812;4.430;2023-09-18T02:47:59;21.30;99.90
24800;DHT22;12897;50.812;4.430;2023-09-18T02:50:27;21.30;99.90
24800;DHT22;12897;50.812;4.430;2023-09-18T02:52:54;21.10;99.90
24800;DHT22;12897;50.812;4.430;2023-09-18T02:55:22;21.10;99.90
24800;DHT22;12897;50.812;4.430;2023-09-18T02:57:49;21.00;99.90
24800;DHT22;12897;50.812;4.430;2023-09-18T03:00:17;21.00;99.90
24800;DHT22;12897;50.812;4.430;2023-09-18T03:02:45;21.00;99.90
24800;DHT22;12897;50.812;4.430;2023-09-18T03:05:13;21.10;99.90
24800;DHT22;12897;50.812;4.430;2023-09-18T03:07:41;21.10;99.90
24800;DHT22;12897;50.812;4.430;2023-09-18T03:10:12;21.10;99.90
24800;DHT22;12897;50.812;4.430;2023-09-18T03:12:42;21.00;99.90
24800;DHT22;12897;50.812;4.430;2023-09-18T03:15:09;21.10;99.90
24800;DHT22;12897;50.812;4.430;2023-09-18T03:17:38;21.10;99.90
24800;DHT22;12897;50.812;4.430;2023-09-18T03:20:10;21.40;99.90
24800;DHT22;12897;50.812;4.430;2023-09-18T03:22:38;21.30;99.90
24800;DHT22;12897;50.812;4.430;2023-09-18T03:25:07;21.30;99.90
24800;DHT22;12897;50.812;4.430;2023-09-18T03:27:35;21.20;99.90
24800;DHT22;12897;50.812;4.430;2023-09-18T03:30:03;21.20;99.90
24800;DHT22;12897;50.812;4.430;2023-09-18T03:32:31;21.30;99.90
24800;DHT22;12897;50.812;4.430;2023-09-18T03:34:59;21.30;99.90
24800;DHT22;12897;50.812;4.430;2023-09-18T03:37:26;21.10;99.90
24800;DHT22;12897;50.812;4.430;2023-09-18T03:39:54;21.00;99.90
24800;DHT22;12897;50.812;4.430;2023-09-18T03:42:22;21.10;99.90
24800;DHT22;12897;50.812;4.430;2023-09-18T03:44:50;21.10;99.90
24800;DHT22;12897;50.812;4.430;2023-09-18T03:47:19;21.10;99.90
24800;DHT22;12897;50.812;4.430;2023-09-18T03:49:46;21.10;99.90
24800;DHT22;12897;50.812;4.430;2023-09-18T03:52:14;21.00;99.90
24800;DHT22;12897;50.812;4.430;2023-09-18T03:54:41;20.90;99.90
24800;DHT22;12897;50.812;4.430;2023-09-18T03:57:09;20.90;99.90
24800;DHT22;12897;50.812;4.430;2023-09-18T03:59:37;20.80;99.90
24800;DHT22;12897;50.812;4.430;2023-09-18T04:02:04;20.80;99.90
24800;DHT22;12897;50.812;4.430;2023-09-18T04:04:32;20.80;99.90
24800;DHT22;12897;50.812;4.430;2023-09-18T04:07:07;20.80;99.90
24800;DHT22;12897;50.812;4.430;2023-09-18T04:09:32;20.80;99.90
24800;DHT22;12897;50.812;4.430;2023-09-18T04:12:02;20.70;99.90
24800;DHT22;12897;50.812;4.430;2023-09-18T04:14:31;20.70;99.90
24800;DHT22;12897;50.812;4.430;2023-09-18T04:16:59;20.70;99.90
24800;DHT22;12897;50.812;4.430;2023-09-18T04:19:30;20.70;99.90
24800;DHT22;12897;50.812;4.430;2023-09-18T04:21:57;20.60;99.90
24800;DHT22;12897;50.812;4.430;2023-09-18T04:24:26;20.70;99.90
24800;DHT22;12897;50.812;4.430;2023-09-18T04:26:53;20.70;99.90
24800;DHT22;12897;50.812;4.430;2023-09-18T04:29:22;20.70;99.90
24800;DHT22;12897;50.812;4.430;2023-09-18T04:31:50;20.60;99.90
24800;DHT22;12897;50.812;4.430;2023-09-18T04:34:19;20.50;99.90
24800;DHT22;12897;50.812;4.430;2023-09-18T04:36:47;20.50;99.90
24800;DHT22;12897;50.812;4.430;2023-09-18T04:39:15;20.60;99.90
24800;DHT22;12897;50.812;4.430;2023-09-18T04:41:43;20.30;99.90
24800;DHT22;12897;50.812;4.430;2023-09-18T04:44:12;20.30;99.90
24800;DHT22;12897;50.812;4.430;2023-09-18T04:46:41;20.10;99.90
24800;DHT22;12897;50.812;4.430;2023-09-18T04:49:08;19.90;99.90
24800;DHT22;12897;50.812;4.430;2023-09-18T04:51:38;19.90;99.90
24800;DHT22;12897;50.812;4.430;2023-09-18T04:54:06;20.00;99.90
24800;DHT22;12897;50.812;4.430;2023-09-18T04:56:34;19.80;99.90
24800;DHT22;12897;50.812;4.430;2023-09-18T04:59:02;19.70;99.90
24800;DHT22;12897;50.812;4.430;2023-09-18T05:01:30;19.60;99.90
24800;DHT22;12897;50.812;4.430;2023-09-18T05:03:59;19.60;99.90
24800;DHT22;12897;50.812;4.430;2023-09-18T05:06:27;19.50;99.90
24800;DHT22;12897;50.812;4.430;2023-09-18T05:08:58;19.50;99.90
24800;DHT22;12897;50.812;4.430;2023-09-18T05:11:27;19.60;99.90
24800;DHT22;12897;50.812;4.430;2023-09-18T05:13:56;19.60;99.90
24800;DHT22;12897;50.812;4.430;2023-09-18T05:16:23;19.70;99.90
24800;DHT22;12897;50.812;4.430;2023-09-18T05:18:51;19.60;99.90
24800;DHT22;12897;50.812;4.430;2023-09-18T05:21:18;19.70;99.90
24800;DHT22;12897;50.812;4.430;2023-09-18T05:23:48;19.70;99.90
24800;DHT22;12897;50.812;4.430;2023-09-18T05:26:23;19.70;99.90
24800;DHT22;12897;50.812;4.430;2023-09-18T05:28:55;19.70;99.90
24800;DHT22;12897;50.812;4.430;2023-09-18T05:31:28;19.70;99.90
24800;DHT22;12897;50.812;4.430;2023-09-18T05:34:05;19.60;99.90
24800;DHT22;12897;50.812;4.430;2023-09-18T05:36:34;19.60;99.90
24800;DHT22;12897;50.812;4.430;2023-09-18T05:39:03;19.60;99.90
24800;DHT22;12897;50.812;4.430;2023-09-18T05:41:33;19.50;99.90
24800;DHT22;12897;50.812;4.430;2023-09-18T05:44:01;19.60;99.90
24800;DHT22;12897;50.812;4.430;2023-09-18T05:46:31;19.60;99.90
24800;DHT22;12897;50.812;4.430;2023-09-18T05:48:58;19.60;99.90
24800;DHT22;12897;50.812;4.430;2023-09-18T05:51:27;19.50;99.90
24800;DHT22;12897;50.812;4.430;2023-09-18T05:53:54;19.40;99.90
24800;DHT22;12897;50.812;4.430;2023-09-18T05:56:22;19.40;99.90
24800;DHT22;12897;50.812;4.430;2023-09-18T05:58:50;19.50;99.90
24800;DHT22;12897;50.812;4.430;2023-09-18T06:01:19;19.40;99.90
24800;DHT22;12897;50.812;4.430;2023-09-18T06:03:46;19.30;99.90
24800;DHT22;12897;50.812;4.430;2023-09-18T06:06:16;19.30;99.90
24800;DHT22;12897;50.812;4.430;2023-09-18T06:08:45;19.30;99.90
24800;DHT22;12897;50.812;4.430;2023-09-18T06:11:12;19.30;99.90
24800;DHT22;12897;50.812;4.430;2023-09-18T06:13:41;19.30;99.90
24800;DHT22;12897;50.812;4.430;2023-09-18T06:16:09;19.30;99.90
24800;DHT22;12897;50.812;4.430;2023-09-18T06:18:36;19.50;99.90
24800;DHT22;12897;50.812;4.430;2023-09-18T06:21:08;19.50;99.90
24800;DHT22;12897;50.812;4.430;2023-09-18T06:23:36;19.50;99.90
24800;DHT22;12897;50.812;4.430;2023-09-18T06:26:04;19.50;99.90
24800;DHT22;12897;50.812;4.430;2023-09-18T06:28:32;19.60;99.90
24800;DHT22;12897;50.812;4.430;2023-09-18T06:30:59;19.60;99.90
24800;DHT22;12897;50.812;4.430;2023-09-18T06:33:27;19.60;99.90
24800;DHT22;12897;50.812;4.430;2023-09-18T06:35:55;19.60;99.90
24800;DHT22;12897;50.812;4.430;2023-09-18T06:38:22;19.70;99.90
24800;DHT22;12897;50.812;4.430;2023-09-18T06:40:50;19.70;99.90
24800;DHT22;12897;50.812;4.430;2023-09-18T06:43:20;19.70;99.90
24800;DHT22;12897;50.812;4.430;2023-09-18T06:45:49;19.80;99.90
24800;DHT22;12897;50.812;4.430;2023-09-18T06:48:17;19.80;99.90
24800;DHT22;12897;50.812;4.430;2023-09-18T06:50:44;19.70;99.90
24800;DHT22;12897;50.812;4.430;2023-09-18T06:53:12;19.60;99.90
24800;DHT22;12897;50.812;4.430;2023-09-18T06:55:39;19.60;99.90
24800;DHT22;12897;50.812;4.430;2023-09-18T06:58:07;19.60;99.90
24800;DHT22;12897;50.812;4.430;2023-09-18T07:00:35;19.60;99.90
24800;DHT22;12897;50.812;4.430;2023-09-18T07:03:04;19.60;99.90
24800;DHT22;12897;50.812;4.430;2023-09-18T07:05:33;19.60;99.90
24800;DHT22;12897;50.812;4.430;2023-09-18T07:08:00;19.80;99.90
24800;DHT22;12897;50.812;4.430;2023-09-18T07:10:28;19.80;99.90
24800;DHT22;12897;50.812;4.430;2023-09-18T07:12:55;19.90;99.90
24800;DHT22;12897;50.812;4.430;2023-09-18T07:15:23;19.80;99.90
24800;DHT22;12897;50.812;4.430;2023-09-18T07:17:53;19.90;99.90
24800;DHT22;12897;50.812;4.430;2023-09-18T07:20:21;19.70;99.90
24800;DHT22;12897;50.812;4.430;2023-09-18T07:22:50;19.70;99.90
24800;DHT22;12897;50.812;4.430;2023-09-18T07:25:18;19.70;99.90
24800;DHT22;12897;50.812;4.430;2023-09-18T07:27:45;19.80;99.90
24800;DHT22;12897;50.812;4.430;2023-09-18T07:30:14;19.90;99.90
24800;DHT22;12897;50.812;4.430;2023-09-18T07:32:46;20.10;99.90
24800;DHT22;12897;50.812;4.430;2023-09-18T07:35:14;20.00;99.90
24800;DHT22;12897;50.812;4.430;2023-09-18T07:37:42;20.10;99.90
24800;DHT22;12897;50.812;4.430;2023-09-18T07:40:12;20.20;99.90
24800;DHT22;12897;50.812;4.430;2023-09-18T07:42:39;20.30;99.90
24800;DHT22;12897;50.812;4.430;2023-09-18T07:45:07;20.40;99.90
24800;DHT22;12897;50.812;4.430;2023-09-18T07:47:35;20.60;99.90
24800;DHT22;12897;50.812;4.430;2023-09-18T07:50:03;20.60;99.90
24800;DHT22;12897;50.812;4.430;2023-09-18T07:52:31;20.60;99.90
24800;DHT22;12897;50.812;4.430;2023-09-18T07:54:58;20.60;99.90
24800;DHT22;12897;50.812;4.430;2023-09-18T07:57:27;20.60;99.90
24800;DHT22;12897;50.812;4.430;2023-09-18T07:59:59;20.50;99.90
24800;DHT22;12897;50.812;4.430;2023-09-18T08:02:28;20.60;99.90
24800;DHT22;12897;50.812;4.430;2023-09-18T08:04:57;20.80;99.90
24800;DHT22;12897;50.812;4.430;2023-09-18T08:07:25;20.90;99.90
24800;DHT22;12897;50.812;4.430;2023-09-18T08:09:52;21.10;99.90
24800;DHT22;12897;50.812;4.430;2023-09-18T08:12:20;21.00;99.90
24800;DHT22;12897;50.812;4.430;2023-09-18T08:14:47;21.10;99.90
24800;DHT22;12897;50.812;4.430;2023-09-18T08:17:16;21.30;99.90
24800;DHT22;12897;50.812;4.430;2023-09-18T08:19:44;21.40;99.90
24800;DHT22;12897;50.812;4.430;2023-09-18T08:22:11;21.60;99.90
24800;DHT22;12897;50.812;4.430;2023-09-18T08:24:41;21.70;99.90
24800;DHT22;12897;50.812;4.430;2023-09-18T08:27:08;21.70;99.90
24800;DHT22;12897;50.812;4.430;2023-09-18T08:29:37;21.90;99.90
24800;DHT22;12897;50.812;4.430;2023-09-18T08:32:05;21.80;99.90
24800;DHT22;12897;50.812;4.430;2023-09-18T08:34:32;21.80;99.90
24800;DHT22;12897;50.812;4.430;2023-09-18T08:37:00;21.60;99.90
24800;DHT22;12897;50.812;4.430;2023-09-18T08:39:27;21.60;99.90
24800;DHT22;12897;50.812;4.430;2023-09-18T08:42:05;21.50;99.90
24800;DHT22;12897;50.812;4.430;2023-09-18T08:44:36;21.10;99.90
24800;DHT22;12897;50.812;4.430;2023-09-18T08:47:06;21.10;99.90
24800;DHT22;12897;50.812;4.430;2023-09-18T08:49:35;21.30;99.90
24800;DHT22;12897;50.812;4.430;2023-09-18T08:52:04;21.50;99.90
24800;DHT22;12897;50.812;4.430;2023-09-18T08:54:33;21.50;99.90
24800;DHT22;12897;50.812;4.430;2023-09-18T08:57:02;21.60;99.90
24800;DHT22;12897;50.812;4.430;2023-09-18T08:59:31;21.50;99.90
24800;DHT22;12897;50.812;4.430;2023-09-18T09:01:59;21.40;99.90
24800;DHT22;12897;50.812;4.430;2023-09-18T09:04:27;21.60;99.90
24800;DHT22;12897;50.812;4.430;2023-09-18T09:06:54;21.60;99.90
24800;DHT22;12897;50.812;4.430;2023-09-18T09:09:24;21.70;99.90
24800;DHT22;12897;50.812;4.430;2023-09-18T09:11:53;21.60;99.90
24800;DHT22;12897;50.812;4.430;2023-09-18T09:14:20;21.60;99.90
24800;DHT22;12897;50.812;4.430;2023-09-18T09:16:57;21.60;99.90
24800;DHT22;12897;50.812;4.430;2023-09-18T09:19:32;21.40;99.90
24800;DHT22;12897;50.812;4.430;2023-09-18T09:22:02;21.30;99.90
24800;DHT22;12897;50.812;4.430;2023-09-18T09:24:38;21.40;99.90
24800;DHT22;12897;50.812;4.430;2023-09-18T09:27:06;21.30;99.90
24800;DHT22;12897;50.812;4.430;2023-09-18T09:29:35;21.10;99.90
24800;DHT22;12897;50.812;4.430;2023-09-18T09:32:19;21.20;99.90
24800;DHT22;12897;50.812;4.430;2023-09-18T09:34:46;21.20;99.90
24800;DHT22;12897;50.812;4.430;2023-09-18T09:37:14;21.30;99.90
24800;DHT22;12897;50.812;4.430;2023-09-18T09:39:51;21.40;99.90
24800;DHT22;12897;50.812;4.430;2023-09-18T09:42:19;21.70;99.90
24800;DHT22;12897;50.812;4.430;2023-09-18T09:45:11;21.80;99.90
24800;DHT22;12897;50.812;4.430;2023-09-18T09:47:39;21.90;99.90
24800;DHT22;12897;50.812;4.430;2023-09-18T09:50:12;21.80;99.90
24800;DHT22;12897;50.812;4.430;2023-09-18T09:52:44;21.90;99.90
24800;DHT22;12897;50.812;4.430;2023-09-18T09:55:29;22.10;99.90
24800;DHT22;12897;50.812;4.430;2023-09-18T09:57:59;22.10;99.90
24800;DHT22;12897;50.812;4.430;2023-09-18T10:00:32;22.00;99.90
24800;DHT22;12897;50.812;4.430;2023-09-18T10:03:14;21.90;99.90
24800;DHT22;12897;50.812;4.430;2023-09-18T10:05:51;21.80;99.90
24800;DHT22;12897;50.812;4.430;2023-09-18T10:08:23;21.80;99.90
24800;DHT22;12897;50.812;4.430;2023-09-18T10:10:47;21.70;99.90
24800;DHT22;12897;50.812;4.430;2023-09-18T10:13:40;21.80;99.90
24800;DHT22;12897;50.812;4.430;2023-09-18T10:16:07;21.80;99.90
24800;DHT22;12897;50.812;4.430;2023-09-18T10:21:22;22.10;99.90
24800;DHT22;12897;50.812;4.430;2023-09-18T10:26:23;22.30;99.90
24800;DHT22;12897;50.812;4.430;2023-09-18T10:28:57;22.30;99.90
24800;DHT22;12897;50.812;4.430;2023-09-18T10:31:29;22.00;99.90
24800;DHT22;12897;50.812;4.430;2023-09-18T10:33:59;21.90;99.90
24800;DHT22;12897;50.812;4.430;2023-09-18T10:36:29;21.50;99.90
24800;DHT22;12897;50.812;4.430;2023-09-18T10:38:59;21.30;99.90
24800;DHT22;12897;50.812;4.430;2023-09-18T10:41:27;21.40;99.90
24800;DHT22;12897;50.812;4.430;2023-09-18T10:43:56;21.40;99.90
24800;DHT22;12897;50.812;4.430;2023-09-18T10:46:26;21.50;99.90
24800;DHT22;12897;50.812;4.430;2023-09-18T10:48:55;21.80;99.90
24800;DHT22;12897;50.812;4.430;2023-09-18T10:51:24;22.10;99.90
24800;DHT22;12897;50.812;4.430;2023-09-18T10:53:52;22.20;99.90
24800;DHT22;12897;50.812;4.430;2023-09-18T10:56:23;22.20;99.90
24800;DHT22;12897;50.812;4.430;2023-09-18T10:58:59;22.10;99.90
24800;DHT22;12897;50.812;4.430;2023-09-18T11:01:30;21.90;99.90
24800;DHT22;12897;50.812;4.430;2023-09-18T11:04:04;21.80;99.90
24800;DHT22;12897;50.812;4.430;2023-09-18T11:06:28;21.90;99.90
24800;DHT22;12897;50.812;4.430;2023-09-18T11:09:02;21.80;99.90
24800;DHT22;12897;50.812;4.430;2023-09-18T11:11:31;21.80;99.90
24800;DHT22;12897;50.812;4.430;2023-09-18T11:14:02;21.90;99.90
24800;DHT22;12897;50.812;4.430;2023-09-18T11:16:33;21.90;99.90
24800;DHT22;12897;50.812;4.430;2023-09-18T11:19:08;22.00;99.90
24800;DHT22;12897;50.812;4.430;2023-09-18T11:21:35;22.00;99.90
24800;DHT22;12897;50.812;4.430;2023-09-18T11:24:14;22.30;99.90
24800;DHT22;12897;50.812;4.430;2023-09-18T11:26:42;22.40;99.90
24800;DHT22;12897;50.812;4.430;2023-09-18T11:29:13;22.30;99.90
24800;DHT22;12897;50.812;4.430;2023-09-18T11:31:50;22.30;99.90
24800;DHT22;12897;50.812;4.430;2023-09-18T11:34:20;22.30;99.90
24800;DHT22;12897;50.812;4.430;2023-09-18T11:36:48;22.50;99.90
24800;DHT22;12897;50.812;4.430;2023-09-18T11:39:37;22.60;99.90
24800;DHT22;12897;50.812;4.430;2023-09-18T11:42:13;22.60;99.90
24800;DHT22;12897;50.812;4.430;2023-09-18T11:44:44;22.70;99.90
24800;DHT22;12897;50.812;4.430;2023-09-18T11:47:16;22.40;99.90
24800;DHT22;12897;50.812;4.430;2023-09-18T11:49:59;22.60;99.90
24800;DHT22;12897;50.812;4.430;2023-09-18T11:52:28;22.60;99.90
24800;DHT22;12897;50.812;4.430;2023-09-18T11:54:56;22.60;99.90
24800;DHT22;12897;50.812;4.430;2023-09-18T11:57:24;22.70;99.90
24800;DHT22;12897;50.812;4.430;2023-09-18T11:59:52;22.70;99.90
24800;DHT22;12897;50.812;4.430;2023-09-18T12:02:32;22.80;99.90
24800;DHT22;12897;50.812;4.430;2023-09-18T12:05:13;23.00;99.90
24800;DHT22;12897;50.812;4.430;2023-09-18T12:07:41;23.10;99.90
24800;DHT22;12897;50.812;4.430;2023-09-18T12:10:12;22.90;99.90
24800;DHT22;12897;50.812;4.430;2023-09-18T12:12:42;22.90;99.90
24800;DHT22;12897;50.812;4.430;2023-09-18T12:15:18;23.20;99.90
24800;DHT22;12897;50.812;4.430;2023-09-18T12:17:47;23.20;99.90
24800;DHT22;12897;50.812;4.430;2023-09-18T12:20:18;23.20;99.90
24800;DHT22;12897;50.812;4.430;2023-09-18T12:22:49;23.00;99.90
24800;DHT22;12897;50.812;4.430;2023-09-18T12:25:17;22.90;99.90
24800;DHT22;12897;50.812;4.430;2023-09-18T12:27:45;23.00;99.90
24800;DHT22;12897;50.812;4.430;2023-09-18T12:30:13;23.20;99.90
24800;DHT22;12897;50.812;4.430;2023-09-18T12:32:45;23.30;99.90
24800;DHT22;12897;50.812;4.430;2023-09-18T12:35:14;23.30;99.90
24800;DHT22;12897;50.812;4.430;2023-09-18T12:37:42;23.40;99.90
24800;DHT22;12897;50.812;4.430;2023-09-18T12:40:23;23.40;99.90
24800;DHT22;12897;50.812;4.430;2023-09-18T12:42:51;23.50;99.90
24800;DHT22;12897;50.812;4.430;2023-09-18T12:45:20;23.40;99.90
24800;DHT22;12897;50.812;4.430;2023-09-18T12:47:48;23.40;99.90
24800;DHT22;12897;50.812;4.430;2023-09-18T12:50:16;23.40;99.90
24800;DHT22;12897;50.812;4.430;2023-09-18T12:52:44;23.60;99.90
24800;DHT22;12897;50.812;4.430;2023-09-18T12:55:24;23.70;99.90
24800;DHT22;12897;50.812;4.430;2023-09-18T12:57:52;23.80;99.90
24800;DHT22;12897;50.812;4.430;2023-09-18T13:00:21;23.70;99.90
24800;DHT22;12897;50.812;4.430;2023-09-18T13:02:50;23.70;99.90
24800;DHT22;12897;50.812;4.430;2023-09-18T13:05:20;23.70;99.90
24800;DHT22;12897;50.812;4.430;2023-09-18T13:07:53;23.70;99.90
24800;DHT22;12897;50.812;4.430;2023-09-18T13:10:23;23.70;99.90
24800;DHT22;12897;50.812;4.430;2023-09-18T13:12:53;23.70;99.90
24800;DHT22;12897;50.812;4.430;2023-09-18T13:15:27;23.80;99.90
24800;DHT22;12897;50.812;4.430;2023-09-18T13:17:57;23.70;99.90
24800;DHT22;12897;50.812;4.430;2023-09-18T13:20:27;23.70;99.90
24800;DHT22;12897;50.812;4.430;2023-09-18T13:22:59;23.80;99.90
24800;DHT22;12897;50.812;4.430;2023-09-18T13:25:31;23.70;99.90
24800;DHT22;12897;50.812;4.430;2023-09-18T13:28:03;24.00;99.90
24800;DHT22;12897;50.812;4.430;2023-09-18T13:30:35;24.20;99.90
24800;DHT22;12897;50.812;4.430;2023-09-18T13:33:04;24.30;99.90
24800;DHT22;12897;50.812;4.430;2023-09-18T13:35:34;24.50;99.90
24800;DHT22;12897;50.812;4.430;2023-09-18T13:38:02;24.60;99.90
24800;DHT22;12897;50.812;4.430;2023-09-18T13:40:31;24.50;99.90
24800;DHT22;12897;50.812;4.430;2023-09-18T13:43:01;24.50;99.90
24800;DHT22;12897;50.812;4.430;2023-09-18T13:45:36;24.50;99.90
24800;DHT22;12897;50.812;4.430;2023-09-18T13:48:07;24.50;99.90
24800;DHT22;12897;50.812;4.430;2023-09-18T13:50:37;24.50;99.90
24800;DHT22;12897;50.812;4.430;2023-09-18T13:53:05;24.60;99.90
24800;DHT22;12897;50.812;4.430;2023-09-18T13:55:34;24.70;99.90
24800;DHT22;12897;50.812;4.430;2023-09-18T13:58:03;24.70;99.90
24800;DHT22;12897;50.812;4.430;2023-09-18T14:00:31;24.80;99.90
24800;DHT22;12897;50.812;4.430;2023-09-18T14:03:02;25.00;99.90
24800;DHT22;12897;50.812;4.430;2023-09-18T14:05:29;25.00;99.90
24800;DHT22;12897;50.812;4.430;2023-09-18T14:07:59;25.10;99.90
24800;DHT22;12897;50.812;4.430;2023-09-18T14:10:27;24.90;99.90
24800;DHT22;12897;50.812;4.430;2023-09-18T14:13:00;24.80;99.90
24800;DHT22;12897;50.812;4.430;2023-09-18T14:15:28;24.60;99.90
24800;DHT22;12897;50.812;4.430;2023-09-18T14:17:56;24.50;99.90
24800;DHT22;12897;50.812;4.430;2023-09-18T14:20:23;24.40;99.90
24800;DHT22;12897;50.812;4.430;2023-09-18T14:22:51;24.40;99.90
24800;DHT22;12897;50.812;4.430;2023-09-18T14:25:18;24.30;99.90
24800;DHT22;12897;50.812;4.430;2023-09-18T14:27:46;24.10;99.90
24800;DHT22;12897;50.812;4.430;2023-09-18T14:30:14;24.20;99.90
24800;DHT22;12897;50.812;4.430;2023-09-18T14:32:42;24.10;99.90
24800;DHT22;12897;50.812;4.430;2023-09-18T14:35:09;24.00;99.90
24800;DHT22;12897;50.812;4.430;2023-09-18T14:37:38;23.90;99.90
24800;DHT22;12897;50.812;4.430;2023-09-18T14:40:08;23.90;99.90
24800;DHT22;12897;50.812;4.430;2023-09-18T14:42:43;23.70;99.90
24800;DHT22;12897;50.812;4.430;2023-09-18T14:45:06;23.60;99.90
24800;DHT22;12897;50.812;4.430;2023-09-18T14:47:35;23.30;99.90
24800;DHT22;12897;50.812;4.430;2023-09-18T14:50:03;22.60;99.90
24800;DHT22;12897;50.812;4.430;2023-09-18T14:52:32;21.80;99.90
24800;DHT22;12897;50.812;4.430;2023-09-18T14:55:01;21.20;99.90
24800;DHT22;12897;50.812;4.430;2023-09-18T14:57:32;20.90;99.90
24800;DHT22;12897;50.812;4.430;2023-09-18T15:00:05;20.80;99.90
24800;DHT22;12897;50.812;4.430;2023-09-18T15:02:43;20.90;99.90
24800;DHT22;12897;50.812;4.430;2023-09-18T15:05:15;20.90;99.90
24800;DHT22;12897;50.812;4.430;2023-09-18T15:07:44;21.20;99.90
24800;DHT22;12897;50.812;4.430;2023-09-18T15:10:12;21.40;99.90
24800;DHT22;12897;50.812;4.430;2023-09-18T15:12:40;21.70;99.90
24800;DHT22;12897;50.812;4.430;2023-09-18T15:15:09;21.80;99.90
24800;DHT22;12897;50.812;4.430;2023-09-18T15:17:36;22.00;99.90
24800;DHT22;12897;50.812;4.430;2023-09-18T15:20:06;22.00;99.90
24800;DHT22;12897;50.812;4.430;2023-09-18T15:22:33;22.10;99.90
24800;DHT22;12897;50.812;4.430;2023-09-18T15:25:02;21.90;99.90
24800;DHT22;12897;50.812;4.430;2023-09-18T15:27:34;22.10;99.90
24800;DHT22;12897;50.812;4.430;2023-09-18T15:29:59;22.20;99.90
24800;DHT22;12897;50.812;4.430;2023-09-18T15:32:28;22.20;99.90
24800;DHT22;12897;50.812;4.430;2023-09-18T15:34:57;22.10;99.90
24800;DHT22;12897;50.812;4.430;2023-09-18T15:37:24;22.10;99.90
24800;DHT22;12897;50.812;4.430;2023-09-18T15:39:54;22.00;99.90
24800;DHT22;12897;50.812;4.430;2023-09-18T15:42:22;21.80;99.90
24800;DHT22;12897;50.812;4.430;2023-09-18T15:44:52;21.70;99.90
24800;DHT22;12897;50.812;4.430;2023-09-18T15:47:23;21.70;99.90
24800;DHT22;12897;50.812;4.430;2023-09-18T15:49:52;21.70;99.90